LFBT/LDE METAR and TAF weather

Enter ICAO airport designator
Station Type Date Time Source
LFBT METAR 2019/06/16 04:30 UTC NOAA

LFBT 160430Z AUTO 16004KT CAVOK 08/08 Q1022 TEMPO 4000 BCFG


Station Type Date Time Source
LFBT Decoded METAR 2019/06/16 04:30 UTC NOAA

Tarbes Ossun Lourdes, France (LFBT) 43-11N 000-00W 363M
Jun 16, 2019 - 12:30 AM EDT / 2019.06.16 0430 UTC
Wind: from the SSE (160 degrees) at 5 MPH (4 KT):0
Visibility: greater than 7 mile(s):0
Temperature: 46 F (8 C)
Dew Point: 46 F (8 C)
Relative Humidity: 100%
Pressure (altimeter): 30.18 in. Hg (1022 hPa)
ob: LFBT 160430Z AUTO 16004KT CAVOK 08/08 Q1022 TEMPO 4000 BCFG
cycle: 4

Station Type Date Time Source
LFBT TAF 2019/06/15 18:21 UTC NOAA

TAF LFBT 151700Z 1518/1618 36012KT 9999 SCT025 BKN050
BECMG 1520/1522 VRB02KT BKN030
BECMG 1600/1602 CAVOK PROB40
TEMPO 1602/1606 4000 BCFG
BECMG 1609/1611 07008KT

Example: see airport list